Time;durP1;ratioP1;P1;durP2;ratioP2;P2;SDS_P1;SDS_P2;PMS_P1;PMS_P2;Temp;Humidity;BMP_temperature;BMP_pressure;BME280_temperature;BME280_humidity;BME280_pressure;Samples;Min_cycle;Max_cycle;Signal;HPM_P1;HPM_P2
2021/10/12 00:02:10;;;;;;;14.90;5.97;;;13.10;99.90;;;;;;6131162;23;20152;-86
2021/10/12 00:04:38;;;;;;;14.60;6.40;;;13.10;99.90;;;;;;6131750;23;20149;-85
2021/10/12 00:07:05;;;;;;;21.50;9.50;;;13.10;99.90;;;;;;6130005;23;20614;-81
2021/10/12 00:09:31;;;;;;;16.23;5.60;;;13.10;99.90;;;;;;6129775;23;20165;-80
2021/10/12 00:11:57;;;;;;;14.77;6.10;;;13.00;99.90;;;;;;6130292;23;20153;-84
2021/10/12 00:14:22;;;;;;;14.13;5.93;;;13.20;99.90;;;;;;6129886;23;20149;-84
2021/10/12 00:16:48;;;;;;;24.93;7.10;;;13.20;99.90;;;;;;6130304;23;20153;-85
2021/10/12 00:19:14;;;;;;;13.93;5.80;;;13.20;99.90;;;;;;6129967;23;20180;-84
2021/10/12 00:21:40;;;;;;;15.27;6.33;;;13.10;99.90;;;;;;6130304;23;20466;-85
2021/10/12 00:24:06;;;;;;;13.10;5.87;;;13.10;99.90;;;;;;6129422;23;20192;-85
2021/10/12 00:26:31;;;;;;;19.40;6.47;;;13.00;99.90;;;;;;6130291;23;20166;-87
2021/10/12 00:28:57;;;;;;;14.70;6.13;;;13.00;99.90;;;;;;6129459;23;20153;-84
2021/10/12 00:31:23;;;;;;;16.73;5.43;;;13.00;99.90;;;;;;6130003;23;20586;-81
2021/10/12 00:33:49;;;;;;;17.97;7.53;;;13.20;99.90;;;;;;6129739;23;20145;-80
2021/10/12 00:36:14;;;;;;;20.77;8.40;;;13.20;99.90;;;;;;6129621;23;20226;-80
2021/10/12 00:38:40;;;;;;;29.80;10.40;;;13.20;99.90;;;;;;6155728;23;20149;-83
2021/10/12 00:41:07;;;;;;;23.13;8.53;;;13.20;99.90;;;;;;6129946;23;20498;-86
2021/10/12 00:43:34;;;;;;;26.10;9.73;;;13.20;99.90;;;;;;6129992;23;20657;-85
2021/10/12 00:46:01;;;;;;;51.37;20.33;;;13.10;99.90;;;;;;6128865;23;20160;-87
2021/10/12 00:48:27;;;;;;;27.70;10.00;;;13.10;99.90;;;;;;6128767;23;20726;-85
2021/10/12 00:50:52;;;;;;;30.80;13.43;;;13.10;99.90;;;;;;6128790;23;20181;-85
2021/10/12 00:53:18;;;;;;;28.00;10.77;;;13.10;99.90;;;;;;6155779;23;20141;-86
2021/10/12 00:55:44;;;;;;;26.07;11.60;;;13.10;99.90;;;;;;6155914;23;20162;-85
2021/10/12 00:58:11;;;;;;;26.43;11.37;;;13.10;99.90;;;;;;6129613;23;20180;-85
2021/10/12 01:00:38;;;;;;;49.47;16.93;;;13.10;99.90;;;;;;6129915;23;20184;-86
2021/10/12 01:03:04;;;;;;;39.07;15.30;;;13.00;99.90;;;;;;6129766;23;20240;-86
2021/10/12 01:05:30;;;;;;;34.23;13.60;;;13.00;99.90;;;;;;6129936;23;20486;-80
2021/10/12 01:07:56;;;;;;;16.43;6.90;;;13.00;99.90;;;;;;6129417;23;20152;-80
2021/10/12 01:10:22;;;;;;;25.47;10.73;;;13.00;99.90;;;;;;6129731;23;20533;-86
2021/10/12 01:12:49;;;;;;;40.67;14.57;;;13.00;99.90;;;;;;6129447;23;20157;-84
2021/10/12 01:15:15;;;;;;;70.07;24.47;;;12.90;99.90;;;;;;6129393;23;20152;-85
2021/10/12 01:17:41;;;;;;;42.10;15.80;;;12.90;99.90;;;;;;6129852;23;20551;-86
2021/10/12 01:20:12;;;;;;;101.90;35.20;;;12.90;99.90;;;;;;6129611;23;20180;-85
2021/10/12 01:22:47;;;;;;;73.80;27.23;;;12.80;99.90;;;;;;6129721;23;20146;-85
2021/10/12 01:25:14;;;;;;;107.97;34.57;;;12.70;99.90;;;;;;6129334;23;20153;-85
2021/10/12 01:27:40;;;;;;;46.57;17.73;;;12.80;99.90;;;;;;6129695;23;20196;-85
2021/10/12 01:30:07;;;;;;;13.20;5.70;;;12.90;99.90;;;;;;6129804;23;20207;-85
2021/10/12 01:32:38;;;;;;;31.83;13.50;;;12.80;99.90;;;;;;6129749;23;20157;-85
2021/10/12 01:35:04;;;;;;;20.00;8.23;;;12.80;99.90;;;;;;6129335;23;20154;-85
2021/10/12 01:37:30;;;;;;;12.20;6.47;;;12.80;99.90;;;;;;6127808;23;20169;-85
2021/10/12 01:39:57;;;;;;;19.83;6.63;;;12.80;99.90;;;;;;6129112;23;20626;-80
2021/10/12 01:42:24;;;;;;;15.90;7.30;;;12.90;99.90;;;;;;6129010;23;20255;-81
2021/10/12 01:44:52;;;;;;;12.50;6.47;;;12.90;99.90;;;;;;6129346;23;20161;-83
2021/10/12 01:47:19;;;;;;;11.37;5.77;;;12.80;99.90;;;;;;6129673;23;20149;-85
2021/10/12 01:49:44;;;;;;;9.03;6.03;;;12.80;99.90;;;;;;6129634;23;20149;-85
2021/10/12 01:52:11;;;;;;;12.97;6.20;;;12.80;99.90;;;;;;6129547;23;20613;-85
2021/10/12 01:54:37;;;;;;;11.73;6.30;;;12.80;99.90;;;;;;6129987;23;20181;-85
2021/10/12 01:57:03;;;;;;;15.73;6.20;;;12.70;99.90;;;;;;6131307;23;20158;-85
2021/10/12 01:59:29;;;;;;;17.40;7.27;;;12.70;99.90;;;;;;6131663;23;20235;-85
2021/10/12 02:01:55;;;;;;;10.47;5.70;;;12.70;99.90;;;;;;6131513;23;20173;-86
2021/10/12 02:04:21;;;;;;;11.97;6.73;;;12.70;99.90;;;;;;6157751;23;20137;-84
2021/10/12 02:06:47;;;;;;;13.63;6.33;;;12.70;99.90;;;;;;6130711;23;20167;-85
2021/10/12 02:09:13;;;;;;;14.93;5.77;;;12.60;99.90;;;;;;6131196;23;20149;-86
2021/10/12 02:11:39;;;;;;;14.00;5.90;;;12.60;99.90;;;;;;6130995;23;20145;-80
2021/10/12 02:14:05;;;;;;;16.90;6.30;;;12.70;99.90;;;;;;6157748;23;20203;-85
2021/10/12 02:16:31;;;;;;;16.67;5.67;;;12.80;99.90;;;;;;6157102;23;20145;-85
2021/10/12 02:18:56;;;;;;;13.47;5.70;;;12.70;99.90;;;;;;6131562;23;20182;-84
2021/10/12 02:21:22;;;;;;;15.37;6.10;;;12.70;99.90;;;;;;6130598;23;20200;-85
2021/10/12 02:23:48;;;;;;;12.87;6.23;;;12.60;99.90;;;;;;6131610;23;20225;-86
2021/10/12 02:26:14;;;;;;;16.20;5.63;;;12.50;99.90;;;;;;6130809;23;20150;-86
2021/10/12 02:28:39;;;;;;;12.43;5.40;;;12.60;99.90;;;;;;6131349;23;20152;-84
2021/10/12 02:31:05;;;;;;;15.77;6.90;;;12.60;99.90;;;;;;6131278;23;20184;-86
2021/10/12 02:33:31;;;;;;;13.40;5.60;;;12.70;99.90;;;;;;6157535;23;20137;-86
2021/10/12 02:35:57;;;;;;;9.20;5.23;;;12.70;99.90;;;;;;6130627;23;20169;-86
2021/10/12 02:38:22;;;;;;;16.17;5.83;;;12.60;99.90;;;;;;6131140;23;20609;-86
2021/10/12 02:40:49;;;;;;;14.60;6.40;;;12.60;99.90;;;;;;6131108;23;20634;-86
2021/10/12 02:43:15;;;;;;;16.03;5.93;;;12.70;99.90;;;;;;6130965;23;20153;-80
2021/10/12 02:45:42;;;;;;;16.33;5.90;;;12.70;99.90;;;;;;6157110;23;20137;-84
2021/10/12 02:48:07;;;;;;;17.33;5.80;;;12.70;99.90;;;;;;6131249;23;20146;-85
2021/10/12 02:50:33;;;;;;;15.27;5.90;;;12.70;99.90;;;;;;6131232;23;20260;-85
2021/10/12 02:52:59;;;;;;;14.47;5.20;;;12.80;99.90;;;;;;6131070;23;20200;-85
2021/10/12 02:55:25;;;;;;;11.63;5.80;;;12.80;99.90;;;;;;6131021;23;20480;-85
2021/10/12 02:57:50;;;;;;;16.60;6.17;;;12.80;99.90;;;;;;6157001;23;20212;-85
2021/10/12 03:00:16;;;;;;;12.33;5.50;;;12.70;99.90;;;;;;6130660;23;20181;-88
2021/10/12 03:02:41;;;;;;;14.17;5.33;;;12.80;99.90;;;;;;6130893;23;20480;-85
2021/10/12 03:05:07;;;;;;;15.83;5.53;;;12.80;99.90;;;;;;6130818;23;20160;-86
2021/10/12 03:07:33;;;;;;;17.03;5.43;;;12.80;99.90;;;;;;6157109;23;20570;-87
2021/10/12 03:09:59;;;;;;;11.23;5.33;;;12.70;99.90;;;;;;6130714;23;20149;-88
2021/10/12 03:12:24;;;;;;;10.07;5.10;;;12.60;99.90;;;;;;6131225;23;20149;-83
2021/10/12 03:14:50;;;;;;;11.87;4.67;;;12.70;99.90;;;;;;6131004;23;20215;-85
2021/10/12 03:17:16;;;;;;;17.83;5.63;;;12.70;99.90;;;;;;6130322;23;20145;-80
2021/10/12 03:19:42;;;;;;;12.47;5.40;;;12.80;99.90;;;;;;6156020;23;20176;-80
2021/10/12 03:22:16;;;;;;;21.43;5.53;;;12.80;99.90;;;;;;6130173;23;20157;-81
2021/10/12 03:24:43;;;;;;;12.53;5.73;;;12.80;99.90;;;;;;6130154;23;20148;-81
2021/10/12 03:27:09;;;;;;;12.73;5.07;;;12.80;99.90;;;;;;6130239;23;20141;-81
2021/10/12 03:29:36;;;;;;;9.20;4.63;;;12.90;99.90;;;;;;6131062;23;20184;-80
2021/10/12 03:32:02;;;;;;;18.20;5.33;;;12.90;99.90;;;;;;6129760;23;20145;-80
2021/10/12 03:34:28;;;;;;;14.00;5.03;;;12.90;99.90;;;;;;6155942;23;20142;-80
2021/10/12 03:36:55;;;;;;;17.63;5.90;;;12.70;99.90;;;;;;6129744;23;20173;-84
2021/10/12 03:39:22;;;;;;;9.77;5.03;;;12.70;99.90;;;;;;6130736;23;20185;-87
2021/10/12 03:41:50;;;;;;;14.17;5.30;;;12.70;99.90;;;;;;6156695;23;20184;-86
2021/10/12 03:44:16;;;;;;;14.23;5.47;;;12.60;99.90;;;;;;6130875;23;20160;-86
2021/10/12 03:46:42;;;;;;;15.40;5.03;;;12.60;99.90;;;;;;6128769;23;20153;-85
2021/10/12 03:49:07;;;;;;;9.87;4.80;;;12.50;99.90;;;;;;6128984;23;20152;-86
2021/10/12 03:51:33;;;;;;;13.63;5.43;;;12.50;99.90;;;;;;6131089;23;20172;-85
2021/10/12 03:53:58;;;;;;;12.50;5.40;;;12.50;99.90;;;;;;6130914;23;20149;-85
2021/10/12 03:56:24;;;;;;;11.37;5.30;;;12.50;99.90;;;;;;6130035;23;20149;-86
2021/10/12 03:58:50;;;;;;;12.73;5.90;;;12.50;99.90;;;;;;6130217;23;20150;-86
2021/10/12 04:01:15;;;;;;;11.77;5.50;;;12.60;99.90;;;;;;6156133;23;20145;-85
2021/10/12 04:03:45;;;;;;;18.40;5.70;;;12.60;99.90;;;;;;6130435;23;20145;-85
2021/10/12 04:06:10;;;;;;;12.73;6.60;;;12.50;99.90;;;;;;6130428;23;20169;-85
2021/10/12 04:08:36;;;;;;;12.17;5.47;;;12.50;99.90;;;;;;6130239;23;20232;-85
2021/10/12 04:11:02;;;;;;;17.97;5.80;;;12.50;99.90;;;;;;6130794;23;20236;-86
2021/10/12 04:13:28;;;;;;;16.70;6.40;;;12.50;99.90;;;;;;6130543;23;20598;-86
2021/10/12 04:15:53;;;;;;;12.03;5.67;;;12.60;99.90;;;;;;6129906;23;20157;-85
2021/10/12 04:18:19;;;;;;;12.30;5.60;;;12.60;99.90;;;;;;6129937;23;20149;-86
2021/10/12 04:20:45;;;;;;;11.63;5.70;;;12.50;99.90;;;;;;6130139;23;20181;-86
2021/10/12 04:23:12;;;;;;;13.87;6.00;;;12.60;99.90;;;;;;6156013;23;20141;-86
2021/10/12 04:25:39;;;;;;;12.17;6.00;;;12.60;99.90;;;;;;6156247;23;20140;-85
2021/10/12 04:28:10;;;;;;;12.90;6.47;;;12.70;99.90;;;;;;6130402;23;20177;-85
2021/10/12 04:30:36;;;;;;;13.03;5.13;;;12.60;99.90;;;;;;6130205;23;20165;-84
2021/10/12 04:33:02;;;;;;;12.93;5.50;;;12.60;99.90;;;;;;6156258;23;20141;-83
2021/10/12 04:35:27;;;;;;;14.33;5.87;;;12.60;99.90;;;;;;6129885;23;20231;-86
2021/10/12 04:37:53;;;;;;;16.20;5.97;;;12.60;99.90;;;;;;6130205;23;20169;-85
2021/10/12 04:40:19;;;;;;;14.90;5.80;;;12.60;99.90;;;;;;6130034;23;20177;-84
2021/10/12 04:42:45;;;;;;;13.53;5.50;;;12.60;99.90;;;;;;6156256;23;20169;-85
2021/10/12 04:45:11;;;;;;;16.33;6.43;;;12.70;99.90;;;;;;6129796;23;20145;-85
2021/10/12 04:47:39;;;;;;;15.20;6.77;;;12.70;99.90;;;;;;6130270;23;20149;-86
2021/10/12 04:50:05;;;;;;;15.03;5.53;;;12.70;99.90;;;;;;6130714;23;20153;-83
2021/10/12 04:52:31;;;;;;;16.73;5.90;;;12.70;99.90;;;;;;6129933;23;20160;-85
2021/10/12 04:54:57;;;;;;;12.07;5.80;;;12.70;99.90;;;;;;6129807;23;20173;-80
2021/10/12 04:57:22;;;;;;;9.53;5.43;;;12.70;99.90;;;;;;6129380;23;20208;-80
2021/10/12 04:59:48;;;;;;;11.97;5.60;;;12.60;99.90;;;;;;6129147;23;20612;-80
2021/10/12 05:02:14;;;;;;;13.13;5.67;;;12.50;99.90;;;;;;6156076;23;20216;-80
2021/10/12 05:04:39;;;;;;;12.20;6.43;;;12.50;99.90;;;;;;6130038;23;20160;-80
2021/10/12 05:07:05;;;;;;;12.77;5.93;;;12.30;99.90;;;;;;6129828;23;20160;-85
2021/10/12 05:09:30;;;;;;;8.87;5.47;;;12.20;99.90;;;;;;6129898;23;20154;-85
2021/10/12 05:11:57;;;;;;;13.60;6.23;;;12.30;99.90;;;;;;6155973;23;20147;-87
2021/10/12 05:14:23;;;;;;;12.70;6.13;;;12.30;99.90;;;;;;6129833;23;20587;-85
2021/10/12 05:16:50;;;;;;;12.40;5.30;;;12.40;99.90;;;;;;6130103;23;20192;-85
2021/10/12 05:19:17;;;;;;;11.60;5.93;;;12.40;99.90;;;;;;6130056;23;20184;-85
2021/10/12 05:21:57;;;;;;;14.63;6.87;;;12.50;99.90;;;;;;6130001;23;20145;-94
2021/10/12 05:44:09;;;;;;;17.13;7.10;;;12.40;99.90;;;;;;6187475;23;20204;-95
2021/10/12 05:46:40;;;;;;;14.87;7.40;;;12.30;99.90;;;;;;6162036;23;20215;-96
2021/10/12 05:49:11;;;;;;;18.03;6.93;;;12.20;99.90;;;;;;6161571;23;20149;-95
2021/10/12 05:51:37;;;;;;;16.37;7.60;;;12.10;99.90;;;;;;6161694;23;20449;-95
2021/10/12 05:54:04;;;;;;;15.90;7.60;;;12.00;99.90;;;;;;6162029;23;20144;-95
2021/10/12 05:56:55;;;;;;;16.03;7.30;;;11.90;99.90;;;;;;6162258;23;20148;-96
2021/10/12 05:59:24;;;;;;;17.20;7.63;;;12.00;99.90;;;;;;6162054;23;20181;-95
2021/10/12 06:01:50;;;;;;;13.83;7.53;;;12.00;99.90;;;;;;6162498;23;20152;-94
2021/10/12 06:04:25;;;;;;;13.13;7.50;;;12.00;99.90;;;;;;6161949;23;20174;-95
2021/10/12 06:07:01;;;;;;;16.03;7.60;;;12.00;99.90;;;;;;6162121;23;20152;-95
2021/10/12 06:09:46;;;;;;;15.10;8.53;;;12.00;99.90;;;;;;6161923;23;20170;-92
2021/10/12 06:12:13;;;;;;;13.90;7.67;;;12.10;99.90;;;;;;6188420;23;20145;-96
2021/10/12 06:14:41;;;;;;;18.53;7.83;;;12.00;99.90;;;;;;6162456;23;20204;-93
2021/10/12 06:17:09;;;;;;;14.37;7.60;;;12.00;99.90;;;;;;6164440;23;20540;-92
2021/10/12 06:19:35;;;;;;;17.23;8.33;;;12.00;99.90;;;;;;6163834;23;20181;-92
2021/10/12 06:22:01;;;;;;;17.63;8.13;;;12.10;99.90;;;;;;6164556;23;20235;-92
2021/10/12 06:24:26;;;;;;;20.20;8.83;;;12.00;99.90;;;;;;6164710;23;20160;-91
2021/10/12 06:26:52;;;;;;;14.93;8.40;;;12.00;99.90;;;;;;6163290;23;20152;-91
2021/10/12 06:29:18;;;;;;;19.03;8.47;;;11.90;99.90;;;;;;6152117;23;20236;-92
2021/10/12 06:35:29;;;;;;;15.70;7.93;;;11.90;99.90;;;;;;6076177;23;20157;-92
2021/10/12 06:57:08;;;;;;;;;;;;;;;;;;;;;
2021/10/12 11:14:50;;;;;;;9.57;2.60;;;16.70;99.90;;;;;;6156482;23;20207;-81
2021/10/12 11:17:16;;;;;;;6.93;2.60;;;16.70;99.90;;;;;;6155879;23;20142;-81
2021/10/12 11:20:02;;;;;;;11.67;3.90;;;16.80;99.90;;;;;;6129866;23;20243;-81
2021/10/12 11:22:29;;;;;;;12.53;3.20;;;16.80;99.90;;;;;;6130335;23;20211;-81
2021/10/12 11:24:57;;;;;;;8.73;3.00;;;16.80;99.90;;;;;;6130552;23;20157;-81
2021/10/12 11:27:23;;;;;;;11.27;3.27;;;16.70;99.90;;;;;;6129548;23;20157;-81
2021/10/12 11:30:06;;;;;;;7.80;2.63;;;16.60;99.90;;;;;;6129805;23;20184;-81
2021/10/12 11:32:32;;;;;;;7.63;3.50;;;16.70;99.90;;;;;;6129957;23;20158;-80
2021/10/12 11:35:06;;;;;;;11.33;3.40;;;16.60;99.90;;;;;;6156105;23;20190;-80
2021/10/12 11:37:31;;;;;;;8.83;3.13;;;16.60;99.90;;;;;;6129834;23;20179;-80
2021/10/12 11:40:17;;;;;;;10.23;3.30;;;16.40;99.90;;;;;;6156276;23;20183;-80
2021/10/12 11:42:44;;;;;;;12.70;3.57;;;16.20;99.90;;;;;;6129759;23;20164;-79
2021/10/12 11:45:10;;;;;;;9.83;3.10;;;16.10;99.90;;;;;;6129960;23;20175;-80
2021/10/12 11:47:36;;;;;;;9.60;3.40;;;16.10;99.90;;;;;;6129510;23;20161;-80
2021/10/12 11:50:13;;;;;;;8.93;2.80;;;16.10;99.90;;;;;;6129800;23;20461;-80
2021/10/12 11:52:40;;;;;;;8.20;3.03;;;16.30;99.90;;;;;;6129715;23;20586;-80
2021/10/12 11:55:09;;;;;;;8.73;3.17;;;16.30;99.90;;;;;;6130042;23;20145;-80
2021/10/12 11:57:36;;;;;;;12.93;2.87;;;16.40;99.90;;;;;;6129608;23;20153;-80
2021/10/12 12:00:03;;;;;;;10.10;2.53;;;16.40;99.90;;;;;;6154870;23;20187;-79
2021/10/12 12:02:32;;;;;;;7.80;2.27;;;16.40;99.90;;;;;;6128849;23;20146;-79
2021/10/12 12:04:59;;;;;;;12.93;2.97;;;16.20;99.90;;;;;;6129856;23;20201;-79
2021/10/12 12:07:33;;;;;;;7.80;2.93;;;15.80;99.90;;;;;;6129823;23;20287;-79
2021/10/12 12:09:59;;;;;;;7.97;3.07;;;15.50;99.90;;;;;;6129667;23;20162;-80
2021/10/12 12:12:25;;;;;;;12.03;4.00;;;15.20;99.90;;;;;;6129414;23;20162;-80
2021/10/12 12:14:52;;;;;;;9.83;3.63;;;15.10;99.90;;;;;;6129509;23;20176;-80
2021/10/12 12:17:27;;;;;;;6.80;3.90;;;15.10;99.90;;;;;;6129782;23;20158;-80
2021/10/12 12:19:55;;;;;;;11.40;4.37;;;15.20;99.90;;;;;;6129486;23;20179;-81
2021/10/12 12:22:28;;;;;;;9.00;4.43;;;15.30;99.90;;;;;;6126151;23;20163;-80
2021/10/12 12:24:59;;;;;;;12.23;5.40;;;15.20;99.90;;;;;;6120957;23;20183;-80
2021/10/12 12:27:25;;;;;;;13.17;4.67;;;15.30;99.90;;;;;;6127795;23;20150;-80
2021/10/12 12:30:06;;;;;;;13.13;5.60;;;15.50;99.90;;;;;;6128851;23;20175;-80
2021/10/12 12:32:32;;;;;;;11.23;4.90;;;15.90;99.90;;;;;;6128715;23;20207;-80
2021/10/12 12:35:07;;;;;;;11.23;4.80;;;16.40;99.90;;;;;;6129409;23;20640;-80
2021/10/12 12:37:33;;;;;;;12.90;3.73;;;17.30;99.90;;;;;;6155551;23;20153;-80
2021/10/12 12:39:59;;;;;;;9.13;3.23;;;17.60;99.90;;;;;;6129456;23;20298;-79
2021/10/12 12:42:37;;;;;;;8.80;3.80;;;17.60;99.90;;;;;;6129707;23;20878;-80
2021/10/12 12:45:22;;;;;;;10.43;4.17;;;17.30;99.90;;;;;;6155281;23;20223;-79
2021/10/12 12:47:54;;;;;;;10.90;3.90;;;16.90;99.90;;;;;;6128944;23;20223;-80
2021/10/12 12:50:37;;;;;;;10.33;4.37;;;16.50;99.90;;;;;;6129959;23;20153;-79
2021/10/12 12:53:07;;;;;;;11.97;4.77;;;16.20;99.90;;;;;;6129767;23;20159;-79
2021/10/12 12:55:36;;;;;;;10.30;5.07;;;15.90;99.90;;;;;;6155029;23;20140;-79
2021/10/12 12:58:02;;;;;;;13.07;5.40;;;15.70;99.90;;;;;;6128878;23;20532;-79
2021/10/12 13:00:28;;;;;;;13.83;5.10;;;15.50;99.90;;;;;;6128803;23;20621;-79
2021/10/12 13:02:55;;;;;;;10.83;5.13;;;15.50;99.90;;;;;;6129406;23;20153;-79
2021/10/12 13:05:22;;;;;;;16.37;5.77;;;15.60;99.90;;;;;;6155429;23;20137;-82
2021/10/12 13:07:52;;;;;;;16.50;6.47;;;15.70;99.90;;;;;;6155060;23;20130;-79
2021/10/12 13:10:18;;;;;;;8.37;4.67;;;15.80;99.90;;;;;;6129163;23;20158;-80
2021/10/12 13:12:45;;;;;;;12.47;5.77;;;15.80;99.90;;;;;;6128849;23;20170;-80
2021/10/12 13:15:14;;;;;;;13.03;5.73;;;15.90;99.90;;;;;;6128989;23;20185;-80
2021/10/12 13:17:40;;;;;;;17.43;5.53;;;16.20;99.90;;;;;;6129107;23;20646;-80
2021/10/12 13:20:07;;;;;;;10.87;4.73;;;16.60;99.90;;;;;;6129054;23;20187;-81
2021/10/12 13:22:33;;;;;;;10.77;5.07;;;16.80;99.90;;;;;;6155392;23;20150;-79
2021/10/12 13:24:58;;;;;;;9.70;4.20;;;17.10;99.90;;;;;;6129076;23;20237;-80
2021/10/12 13:27:24;;;;;;;14.73;4.20;;;17.00;99.90;;;;;;6128748;23;20150;-80
2021/10/12 13:29:50;;;;;;;12.63;3.43;;;17.10;99.90;;;;;;6128873;23;20185;-80
2021/10/12 13:32:18;;;;;;;9.47;4.30;;;17.20;99.90;;;;;;6129122;23;20470;-80
2021/10/12 13:34:48;;;;;;;5.80;3.33;;;17.10;99.90;;;;;;6129047;23;20153;-80
2021/10/12 13:37:15;;;;;;;17.37;4.57;;;17.00;99.90;;;;;;6129198;23;20649;-80
2021/10/12 13:39:41;;;;;;;12.77;4.50;;;16.40;99.90;;;;;;6128657;23;20173;-80
2021/10/12 13:42:07;;;;;;;8.00;4.70;;;16.10;99.90;;;;;;6128802;23;20165;-79
2021/10/12 13:44:35;;;;;;;23.20;6.53;;;15.90;99.90;;;;;;6154982;23;20230;-79
2021/10/12 13:47:00;;;;;;;18.00;7.83;;;15.70;99.90;;;;;;6129010;23;20486;-79
2021/10/12 13:49:26;;;;;;;14.80;5.87;;;15.40;99.90;;;;;;6128661;23;20142;-79
2021/10/12 13:51:51;;;;;;;13.63;6.37;;;15.30;99.90;;;;;;6156413;23;20212;-79
2021/10/12 13:54:19;;;;;;;18.73;6.43;;;15.20;99.90;;;;;;6131001;23;20156;-79
2021/10/12 13:56:45;;;;;;;50.30;8.67;;;15.00;99.90;;;;;;6130403;23;20205;-80
2021/10/12 13:59:10;;;;;;;16.93;7.23;;;14.70;99.90;;;;;;6130407;23;20158;-79
2021/10/12 14:01:36;;;;;;;16.50;8.13;;;14.50;99.90;;;;;;6130726;23;20237;-79
2021/10/12 14:04:03;;;;;;;20.87;8.10;;;14.10;99.90;;;;;;6131325;23;20284;-79
2021/10/12 14:06:29;;;;;;;22.00;9.00;;;13.90;99.90;;;;;;6130813;23;20180;-79
2021/10/12 14:08:55;;;;;;;18.40;8.47;;;13.80;99.90;;;;;;6130721;23;20591;-80
2021/10/12 14:11:20;;;;;;;16.60;8.97;;;13.80;99.90;;;;;;6156360;23;20134;-80
2021/10/12 14:13:46;;;;;;;20.87;9.30;;;13.90;99.90;;;;;;6130844;23;20177;-80
2021/10/12 14:16:12;;;;;;;28.97;9.67;;;14.10;99.90;;;;;;6130726;23;20141;-79
2021/10/12 14:18:38;;;;;;;21.63;9.90;;;14.10;99.90;;;;;;6156557;23;20157;-80
2021/10/12 14:21:04;;;;;;;23.07;8.47;;;14.00;99.90;;;;;;6156773;23;20220;-80
2021/10/12 14:23:30;;;;;;;21.13;8.97;;;14.10;99.90;;;;;;6130692;23;20155;-80
2021/10/12 14:25:55;;;;;;;15.40;9.63;;;14.10;99.90;;;;;;6130354;23;20465;-80
2021/10/12 14:28:21;;;;;;;20.17;8.77;;;14.20;99.90;;;;;;6130680;23;20154;-80
2021/10/12 14:30:47;;;;;;;17.47;9.77;;;14.30;99.90;;;;;;6130802;23;20233;-80
2021/10/12 14:33:14;;;;;;;22.67;10.33;;;14.40;99.90;;;;;;6131274;23;20559;-80
2021/10/12 14:35:40;;;;;;;22.57;9.97;;;14.40;99.90;;;;;;6130599;23;20150;-81
2021/10/12 14:38:06;;;;;;;19.27;10.77;;;14.40;99.90;;;;;;6156585;23;20216;-81
2021/10/12 14:40:32;;;;;;;25.27;11.20;;;14.40;99.90;;;;;;6129893;23;20177;-81
2021/10/12 14:42:58;;;;;;;15.30;10.53;;;14.40;99.90;;;;;;6130617;23;20200;-81
2021/10/12 14:45:25;;;;;;;19.47;11.23;;;14.40;99.90;;;;;;6156662;23;20155;-81
2021/10/12 14:47:55;;;;;;;21.00;11.80;;;14.50;99.90;;;;;;6130453;23;20147;-81
2021/10/12 14:50:21;;;;;;;21.93;10.43;;;14.50;99.90;;;;;;6130724;23;20594;-81
2021/10/12 14:52:47;;;;;;;21.33;11.57;;;14.50;99.90;;;;;;6130286;23;20144;-81
2021/10/12 14:55:14;;;;;;;22.37;10.83;;;14.50;99.90;;;;;;6130087;23;20499;-81
2021/10/12 14:57:42;;;;;;;20.53;11.70;;;14.50;99.90;;;;;;6130191;23;20151;-81
2021/10/12 15:00:15;;;;;;;22.63;11.83;;;14.60;99.90;;;;;;6130103;23;20185;-81
2021/10/12 15:02:40;;;;;;;22.20;10.90;;;14.60;99.90;;;;;;6130140;23;20243;-82
2021/10/12 15:05:08;;;;;;;20.23;11.70;;;14.60;99.90;;;;;;6130371;23;20577;-81
2021/10/12 15:07:38;;;;;;;20.33;11.00;;;14.70;99.90;;;;;;6130394;23;20164;-82
2021/10/12 15:10:07;;;;;;;28.50;12.00;;;14.70;99.90;;;;;;6129661;23;20149;-79
2021/10/12 15:12:34;;;;;;;19.87;11.30;;;14.70;99.90;;;;;;6130113;23;20179;-81
2021/10/12 15:15:03;;;;;;;26.87;11.70;;;14.60;99.90;;;;;;6130318;23;20210;-81
2021/10/12 15:17:30;;;;;;;21.73;11.10;;;14.60;99.90;;;;;;6130519;23;20150;-81
2021/10/12 15:19:57;;;;;;;17.37;11.20;;;14.70;99.90;;;;;;6129935;23;20649;-81
2021/10/12 15:22:22;;;;;;;19.23;11.57;;;14.70;99.90;;;;;;6156714;23;20201;-81
2021/10/12 15:24:48;;;;;;;23.03;11.27;;;14.70;99.90;;;;;;6129808;23;20562;-81
2021/10/12 15:27:14;;;;;;;18.10;10.70;;;14.80;99.90;;;;;;6130624;23;20237;-80
2021/10/12 15:29:39;;;;;;;23.53;10.90;;;14.90;99.90;;;;;;6130142;23;20178;-81
2021/10/12 15:32:08;;;;;;;19.80;11.03;;;14.90;99.90;;;;;;6130186;23;20153;-80
2021/10/12 15:34:35;;;;;;;16.77;9.80;;;14.90;99.90;;;;;;6130199;23;20156;-81
2021/10/12 15:37:01;;;;;;;15.37;8.60;;;14.90;99.90;;;;;;6130171;23;20157;-81
2021/10/12 15:39:30;;;;;;;14.70;9.13;;;14.80;99.90;;;;;;6129527;23;20264;-80
2021/10/12 15:41:58;;;;;;;16.23;8.40;;;14.80;99.90;;;;;;6129813;23;20163;-80
2021/10/12 15:44:25;;;;;;;16.87;9.03;;;14.80;99.90;;;;;;6130487;23;20157;-80
2021/10/12 15:46:52;;;;;;;19.37;9.27;;;14.80;99.90;;;;;;6128420;23;20154;-81
2021/10/12 15:49:19;;;;;;;17.87;9.77;;;14.80;99.90;;;;;;6127747;23;20149;-80
2021/10/12 15:51:46;;;;;;;14.83;8.60;;;14.80;99.90;;;;;;6129360;23;20641;-80
2021/10/12 15:54:12;;;;;;;13.40;7.53;;;14.90;99.90;;;;;;6129018;23;20153;-80
2021/10/12 15:56:38;;;;;;;13.27;7.87;;;14.90;99.90;;;;;;6130244;23;20467;-80
2021/10/12 15:59:05;;;;;;;15.33;8.37;;;14.80;99.90;;;;;;6129524;23;20150;-80
2021/10/12 16:01:31;;;;;;;12.63;6.43;;;15.10;99.90;;;;;;6129910;23;20159;-81
2021/10/12 16:03:57;;;;;;;13.57;6.40;;;15.10;99.90;;;;;;6129858;23;20157;-81
2021/10/12 16:06:23;;;;;;;14.80;6.30;;;15.10;99.90;;;;;;6129940;23;20630;-81
2021/10/12 16:08:51;;;;;;;11.80;6.00;;;15.10;99.90;;;;;;6129415;23;20614;-81
2021/10/12 16:11:19;;;;;;;10.37;5.73;;;15.10;99.90;;;;;;6129917;23;20164;-81
2021/10/12 16:13:45;;;;;;;12.53;5.97;;;15.10;99.90;;;;;;6155491;23;20170;-81
2021/10/12 16:16:13;;;;;;;15.60;5.57;;;15.10;99.90;;;;;;6129811;23;20161;-81
2021/10/12 16:24:08;;;;;;;12.73;5.73;;;14.90;99.90;;;;;;6165801;23;20297;-81
2021/10/12 16:26:36;;;;;;;8.73;4.93;;;14.90;99.90;;;;;;6130040;23;20237;-81
2021/10/12 16:29:05;;;;;;;10.57;5.50;;;14.80;99.90;;;;;;6129658;23;20180;-81
2021/10/12 16:31:32;;;;;;;10.30;5.27;;;14.80;99.90;;;;;;6130309;23;20152;-81
2021/10/12 16:34:25;;;;;;;11.73;4.97;;;14.80;99.90;;;;;;6129573;23;20165;-80
2021/10/12 16:36:55;;;;;;;9.87;4.83;;;14.80;99.90;;;;;;6154782;23;20178;-80
2021/10/12 16:39:26;;;;;;;11.83;4.80;;;14.70;99.90;;;;;;6129346;23;20153;-81
2021/10/12 16:41:53;;;;;;;9.40;5.00;;;14.70;99.90;;;;;;6129470;23;20149;-80
2021/10/12 16:44:20;;;;;;;11.07;4.80;;;14.70;99.90;;;;;;6129589;23;20596;-81
2021/10/12 16:46:46;;;;;;;13.93;4.67;;;14.70;99.90;;;;;;6129446;23;20159;-81
2021/10/12 16:49:15;;;;;;;11.80;4.87;;;14.70;99.90;;;;;;6128906;23;20162;-81
2021/10/12 16:51:43;;;;;;;13.13;6.23;;;14.70;99.90;;;;;;6129253;23;20197;-80
2021/10/12 16:54:09;;;;;;;8.13;4.57;;;14.70;99.90;;;;;;6128939;23;20150;-81
2021/10/12 16:56:35;;;;;;;11.80;5.43;;;14.60;99.90;;;;;;6129603;23;20612;-81
2021/10/12 16:59:12;;;;;;;11.53;5.07;;;14.60;99.90;;;;;;6129179;23;20151;-81
2021/10/12 17:01:43;;;;;;;5.57;4.40;;;14.50;99.90;;;;;;6129548;23;20159;-81
2021/10/12 17:04:10;;;;;;;8.40;4.27;;;14.50;99.90;;;;;;6129741;23;20148;-81
2021/10/12 17:06:37;;;;;;;7.27;4.00;;;14.40;99.90;;;;;;6128961;23;20216;-81
2021/10/12 17:09:04;;;;;;;7.97;4.13;;;14.50;99.90;;;;;;6155426;23;20204;-82
2021/10/12 17:11:30;;;;;;;7.60;4.27;;;14.60;99.90;;;;;;6129294;23;20615;-83
2021/10/12 17:13:56;;;;;;;11.67;4.10;;;14.60;99.90;;;;;;6129019;23;20174;-82
2021/10/12 17:16:24;;;;;;;7.73;3.30;;;14.60;99.90;;;;;;6129436;23;20159;-82
2021/10/12 17:18:51;;;;;;;4.90;2.00;;;14.60;99.90;;;;;;6155694;23;20130;-83
2021/10/12 17:21:16;;;;;;;3.80;1.73;;;14.60;99.90;;;;;;6129248;23;20616;-89
2021/10/12 17:23:42;;;;;;;4.53;1.70;;;14.60;99.90;;;;;;6128080;23;20153;-88
2021/10/12 17:26:08;;;;;;;6.97;1.90;;;14.60;99.90;;;;;;6126996;23;20229;-90
2021/10/12 17:28:35;;;;;;;5.27;1.23;;;14.40;99.90;;;;;;6132257;23;20178;-89
2021/10/12 17:31:00;;;;;;;2.77;1.03;;;14.20;99.90;;;;;;6137029;23;20150;-84
2021/10/12 17:33:26;;;;;;;3.10;1.00;;;14.20;99.90;;;;;;6137987;23;20147;-85
2021/10/12 17:35:52;;;;;;;3.30;1.00;;;14.00;99.90;;;;;;6139553;23;20232;-86
2021/10/12 17:38:19;;;;;;;4.87;1.20;;;13.90;99.90;;;;;;6164998;23;20138;-88
2021/10/12 17:40:50;;;;;;;5.17;1.10;;;13.90;99.90;;;;;;6139927;23;20219;-86
2021/10/12 17:43:16;;;;;;;3.07;1.07;;;13.80;99.90;;;;;;6165875;23;20154;-88